Luna Pier, Michigan
Current Conditions -  °F | °C
As of 11:16 PM on Friday 24 Oct 2014 (Local Time) from KTTF Reporting Station
Broken Clouds Broken Clouds  
Wind Chill: 46°   Ceiling: 4500
Heat Index: 46°   Visibility: 10mi
Dew Point: 43°   Wind: 0mph
Humidity: 87%   Direction: NA
Pressure: 29.96"   Gusts: NA
Location:  41.81°N, 83.44°W
Report Text: KTTF 250316Z AUTO 00000KT 10SM BKN045 08/06 A2996 RMK AO2
Loading
Personal Weather Stations






























Interactive Weather Map
Tropical Storm Tracking
New forecast layout! Learn more

10-Day Weather Forecast

Advertisements
Track Severe Weather on mobile